Time;durP1;ratioP1;P1;durP2;ratioP2;P2;SDS_P1;SDS_P2;PMS_P1;PMS_P2;Temp;Humidity;BMP_temperature;BMP_pressure;BME280_temperature;BME280_humidity;BME280_pressure;Samples;Min_cycle;Max_cycle;Signal;HPM_P1;HPM_P2
2022/01/11 00:01:28;;;;;;;2.28;1.63;;;15.30;42.40;;;;;;5092701;28;20036;-72
2022/01/11 00:03:54;;;;;;;1.75;1.25;;;15.30;42.70;;;;;;5075745;28;20039;-67
2022/01/11 00:06:52;;;;;;;2.20;1.90;;;15.30;42.90;;;;;;5093856;28;20064;-68
2022/01/11 00:09:07;;;;;;;2.03;1.50;;;15.30;43.00;;;;;;5092623;28;20055;-66
2022/01/11 00:11:35;;;;;;;2.75;1.80;;;15.40;42.80;;;;;;5092731;28;20051;-67
2022/01/11 00:14:00;;;;;;;2.00;1.33;;;15.60;42.70;;;;;;5092891;28;20116;-66
2022/01/11 00:16:26;;;;;;;1.30;1.20;;;15.80;42.50;;;;;;5092438;28;20137;-66
2022/01/11 00:18:52;;;;;;;1.77;1.50;;;16.00;42.10;;;;;;5092298;28;20066;-68
2022/01/11 00:21:21;;;;;;;1.40;1.00;;;16.30;41.80;;;;;;5092647;28;20044;-68
2022/01/11 00:26:35;;;;;;;1.67;1.13;;;17.00;40.90;;;;;;5092127;28;20043;-66
2022/01/11 00:29:01;;;;;;;1.40;1.23;;;17.30;40.30;;;;;;5093348;28;20070;-66
2022/01/11 00:31:26;;;;;;;1.23;1.08;;;17.60;39.80;;;;;;5093426;28;20391;-68
2022/01/11 00:33:53;;;;;;;1.70;1.30;;;17.90;39.40;;;;;;5092348;28;20032;-68
2022/01/11 00:36:19;;;;;;;1.25;1.10;;;18.20;39.80;;;;;;5093896;28;20119;-66
2022/01/11 00:38:44;;;;;;;1.88;1.30;;;18.40;38.60;;;;;;5091785;28;20182;-68
2022/01/11 00:41:13;;;;;;;1.70;0.85;;;18.60;38.30;;;;;;5091794;28;20177;-68
2022/01/11 00:43:41;;;;;;;1.50;0.90;;;18.80;38.00;;;;;;5091580;28;20121;-67
2022/01/11 00:46:07;;;;;;;1.90;1.35;;;18.90;37.60;;;;;;5093711;28;20040;-67
2022/01/11 00:48:35;;;;;;;1.05;0.70;;;19.10;37.40;;;;;;5091714;28;20073;-67
2022/01/11 00:51:01;;;;;;;1.30;1.10;;;19.20;37.10;;;;;;5093236;28;20414;-68
2022/01/11 00:53:27;;;;;;;1.50;1.40;;;19.40;36.90;;;;;;5091745;28;20040;-67
2022/01/11 00:55:55;;;;;;;1.98;1.10;;;19.50;36.70;;;;;;5091572;28;20114;-67
2022/01/11 00:58:21;;;;;;;1.27;0.90;;;19.70;36.50;;;;;;5092132;28;20143;-67
2022/01/11 01:00:48;;;;;;;1.20;0.85;;;19.80;36.20;;;;;;5108629;28;20094;-68
2022/01/11 01:03:15;;;;;;;1.48;1.00;;;19.90;36.80;;;;;;5091783;28;20046;-67
2022/01/11 01:05:44;;;;;;;1.55;1.08;;;20.00;35.90;;;;;;5091691;28;20490;-66
2022/01/11 01:08:10;;;;;;;1.23;1.05;;;20.10;35.60;;;;;;5091720;28;20097;-67
2022/01/11 01:10:38;;;;;;;1.10;0.98;;;20.20;35.50;;;;;;5091592;28;20083;-67
2022/01/11 01:13:08;;;;;;;1.60;1.30;;;20.30;35.30;;;;;;5091909;28;20044;-68
2022/01/11 01:15:35;;;;;;;1.17;0.90;;;20.40;35.10;;;;;;5091480;28;20048;-67
2022/01/11 01:18:01;;;;;;;1.27;0.82;;;20.50;35.00;;;;;;5091341;28;20040;-67
2022/01/11 01:20:29;;;;;;;1.10;0.77;;;20.60;34.80;;;;;;5092449;28;20467;-67
2022/01/11 01:22:55;;;;;;;1.85;1.30;;;20.70;34.70;;;;;;5091482;28;20119;-67
2022/01/11 01:25:23;;;;;;;1.60;1.10;;;20.80;34.60;;;;;;5090857;28;20432;-68
2022/01/11 01:27:49;;;;;;;1.00;0.85;;;20.90;34.40;;;;;;5092319;28;20031;-67
2022/01/11 01:30:17;;;;;;;1.30;0.88;;;21.00;34.30;;;;;;5091018;28;20096;-68
2022/01/11 01:32:44;;;;;;;1.00;0.80;;;21.00;34.20;;;;;;5092331;28;20059;-67
2022/01/11 01:35:11;;;;;;;1.40;1.08;;;21.10;34.10;;;;;;5091093;28;20032;-67
2022/01/11 01:37:37;;;;;;;1.10;0.77;;;21.10;33.90;;;;;;5090925;28;20051;-68
2022/01/11 01:40:07;;;;;;;1.30;1.20;;;21.20;33.80;;;;;;5090912;28;20044;-68
2022/01/11 01:42:33;;;;;;;;;;;21.30;33.80;;;;;;5091380;28;20171;-67
2022/01/11 01:45:02;;;;;;;1.23;1.13;;;21.30;33.80;;;;;;5092157;28;19920;-68
2022/01/11 01:47:27;;;;;;;1.20;1.10;;;21.40;33.70;;;;;;5091101;28;20040;-66
2022/01/11 01:49:53;;;;;;;1.65;1.00;;;21.50;33.50;;;;;;5092271;28;20459;-66
2022/01/11 01:52:19;;;;;;;1.10;1.00;;;21.50;33.30;;;;;;5091857;28;20036;-65
2022/01/11 01:54:45;;;;;;;1.13;0.95;;;21.60;33.20;;;;;;5091036;28;20032;-65
2022/01/11 01:57:12;;;;;;;1.05;0.82;;;21.60;33.20;;;;;;5090450;28;20078;-65
2022/01/11 01:59:37;;;;;;;1.77;1.25;;;21.70;33.10;;;;;;5090597;28;20048;-66
2022/01/11 02:02:06;;;;;;;1.75;1.27;;;21.80;33.00;;;;;;5090834;28;20471;-67
2022/01/11 02:04:31;;;;;;;1.63;1.00;;;21.80;32.90;;;;;;5090715;28;20055;-66
2022/01/11 02:06:57;;;;;;;1.58;1.27;;;21.90;32.90;;;;;;5090599;28;20118;-66
2022/01/11 02:09:22;;;;;;;1.45;1.10;;;21.90;32.80;;;;;;5090597;28;20051;-66
2022/01/11 02:11:49;;;;;;;1.20;0.93;;;22.00;32.60;;;;;;5090831;28;20040;-66
2022/01/11 02:14:14;;;;;;;1.80;1.27;;;22.00;32.60;;;;;;5107726;28;20058;-66
2022/01/11 02:16:40;;;;;;;1.42;1.00;;;22.10;32.50;;;;;;5090488;28;20550;-66
2022/01/11 02:19:06;;;;;;;1.42;1.00;;;22.10;32.40;;;;;;5090505;28;20240;-65
2022/01/11 02:21:31;;;;;;;1.88;1.63;;;22.20;32.30;;;;;;5090743;28;20043;-66
2022/01/11 02:24:00;;;;;;;1.15;0.98;;;22.20;32.20;;;;;;5090709;28;20364;-66
2022/01/11 02:26:26;;;;;;;2.22;1.20;;;22.30;32.10;;;;;;5091759;28;20036;-65
2022/01/11 02:28:53;;;;;;;1.67;1.33;;;22.40;32.10;;;;;;5090564;28;20480;-65
2022/01/11 02:31:20;;;;;;;2.42;1.63;;;22.40;32.00;;;;;;5091680;28;20430;-66
2022/01/11 02:33:51;;;;;;;1.40;1.17;;;22.40;31.90;;;;;;5090551;28;20040;-65
2022/01/11 02:38:59;;;;;;;1.60;1.30;;;22.60;31.70;;;;;;5130236;27;20440;-66
2022/01/11 02:41:27;;;;;;;1.65;1.13;;;22.60;31.60;;;;;;5129163;28;20117;-69
2022/01/11 02:43:57;;;;;;;1.80;1.23;;;22.70;31.60;;;;;;5129133;28;20032;-67
2022/01/11 02:46:23;;;;;;;1.48;1.02;;;22.70;31.50;;;;;;5128980;28;20043;-67
2022/01/11 02:48:52;;;;;;;1.65;1.20;;;22.70;31.50;;;;;;5128870;28;20050;-66
2022/01/11 02:51:18;;;;;;;3.17;1.33;;;22.70;31.30;;;;;;5128992;28;20114;-66
2022/01/11 02:53:45;;;;;;;1.98;1.55;;;22.80;31.30;;;;;;5129971;28;20470;-66
2022/01/11 02:56:12;;;;;;;1.63;1.50;;;22.70;31.20;;;;;;5129902;27;20054;-66
2022/01/11 02:58:38;;;;;;;1.67;1.48;;;22.60;31.30;;;;;;5129875;27;20491;-66
2022/01/11 03:01:05;;;;;;;2.50;1.50;;;22.60;31.60;;;;;;5129955;27;20126;-66
2022/01/11 03:03:30;;;;;;;1.77;1.05;;;22.40;31.60;;;;;;5129854;27;20046;-66
2022/01/11 03:05:59;;;;;;;1.63;1.52;;;22.30;31.80;;;;;;5129794;28;20031;-66
2022/01/11 03:08:30;;;;;;;1.73;1.30;;;22.20;31.80;;;;;;5128700;28;20372;-66
2022/01/11 03:10:56;;;;;;;2.30;1.60;;;22.20;31.90;;;;;;5129650;27;20044;-67
2022/01/11 03:13:23;;;;;;;1.85;1.45;;;22.20;31.80;;;;;;5128623;28;20169;-66
2022/01/11 03:15:49;;;;;;;1.98;1.52;;;22.30;31.70;;;;;;5128331;28;20505;-66
2022/01/11 03:18:16;;;;;;;1.27;1.08;;;22.40;31.50;;;;;;5129563;27;20035;-66
2022/01/11 03:20:45;;;;;;;2.38;1.70;;;22.50;31.50;;;;;;5129586;27;20031;-67
2022/01/11 03:23:12;;;;;;;1.85;1.48;;;22.60;31.40;;;;;;5128287;28;20093;-66
2022/01/11 03:25:38;;;;;;;2.45;2.10;;;22.60;31.40;;;;;;5129372;27;20375;-66
2022/01/11 03:28:04;;;;;;;1.60;1.50;;;22.60;31.40;;;;;;5128396;28;20042;-66
2022/01/11 03:30:30;;;;;;;2.25;1.48;;;22.60;31.40;;;;;;5128003;28;20495;-67
2022/01/11 03:32:57;;;;;;;1.73;1.60;;;22.70;31.30;;;;;;5128056;28;20114;-66
2022/01/11 03:35:23;;;;;;;2.17;1.60;;;22.70;31.20;;;;;;5127954;28;20085;-67
2022/01/11 03:37:49;;;;;;;2.55;1.80;;;22.80;31.20;;;;;;5128984;28;20047;-67
2022/01/11 03:40:19;;;;;;;3.05;2.28;;;22.80;31.10;;;;;;5128025;28;20035;-66
2022/01/11 03:42:47;;;;;;;2.30;2.08;;;22.80;31.00;;;;;;5128139;28;20379;-67
2022/01/11 03:45:14;;;;;;;2.55;2.13;;;22.90;31.00;;;;;;5127732;28;20054;-67
2022/01/11 03:47:40;;;;;;;2.55;1.98;;;22.90;30.90;;;;;;5127787;28;20068;-67
2022/01/11 03:50:08;;;;;;;3.28;2.30;;;22.90;30.90;;;;;;5116430;28;20386;-67
2022/01/11 03:52:34;;;;;;;2.38;2.05;;;22.90;30.80;;;;;;5113899;28;20043;-67
2022/01/11 03:57:41;;;;;;;2.58;2.35;;;22.90;30.70;;;;;;5089622;27;20898;-67
2022/01/11 04:00:12;;;;;;;2.63;2.00;;;23.00;30.80;;;;;;5088073;28;20476;-67
2022/01/11 04:02:38;;;;;;;2.72;1.77;;;23.00;30.70;;;;;;5088385;28;20089;-67
2022/01/11 04:05:06;;;;;;;2.25;2.00;;;23.00;30.60;;;;;;5089268;28;20387;-66
2022/01/11 04:07:32;;;;;;;3.22;2.90;;;23.00;30.60;;;;;;5087984;28;20101;-67
2022/01/11 04:09:57;;;;;;;3.00;2.70;;;23.00;30.50;;;;;;5087949;28;20492;-67
2022/01/11 04:12:24;;;;;;;3.05;2.53;;;23.00;30.50;;;;;;5089528;28;20032;-66
2022/01/11 04:14:50;;;;;;;3.30;2.58;;;23.00;30.40;;;;;;5089150;28;20101;-67
2022/01/11 04:17:16;;;;;;;3.55;2.80;;;23.10;30.50;;;;;;5087740;28;20066;-67
2022/01/11 04:19:42;;;;;;;3.47;2.60;;;23.00;30.40;;;;;;5088129;28;20056;-67
2022/01/11 04:22:08;;;;;;;3.78;2.80;;;23.00;30.50;;;;;;5088987;28;20037;-67
2022/01/11 04:24:34;;;;;;;3.25;2.83;;;23.00;30.50;;;;;;5088977;28;20032;-67
2022/01/11 04:27:00;;;;;;;3.85;2.92;;;23.00;30.40;;;;;;5087574;28;20508;-67
2022/01/11 04:29:29;;;;;;;3.75;2.90;;;23.10;30.50;;;;;;5088849;28;20037;-67
2022/01/11 04:31:54;;;;;;;3.72;3.08;;;23.00;30.40;;;;;;5087548;28;20044;-67
2022/01/11 04:34:20;;;;;;;3.45;2.83;;;23.00;30.40;;;;;;5087517;28;20055;-67
2022/01/11 04:36:46;;;;;;;3.78;2.80;;;23.10;30.40;;;;;;5087392;28;20067;-69
2022/01/11 04:39:13;;;;;;;3.30;2.97;;;23.10;30.40;;;;;;5088610;28;20079;-67
2022/01/11 04:41:39;;;;;;;4.00;3.35;;;23.00;30.30;;;;;;5087601;28;20036;-67
2022/01/11 04:44:06;;;;;;;3.47;3.13;;;23.00;30.40;;;;;;5088780;28;20043;-67
2022/01/11 04:46:32;;;;;;;3.63;3.33;;;23.10;30.40;;;;;;5087262;28;20047;-67
2022/01/11 04:49:00;;;;;;;4.47;3.10;;;23.10;30.40;;;;;;5089005;28;20036;-68
2022/01/11 04:51:26;;;;;;;4.00;3.50;;;23.00;30.40;;;;;;5088461;28;20047;-68
2022/01/11 04:53:53;;;;;;;4.30;3.45;;;23.00;30.40;;;;;;5088379;28;20119;-68
2022/01/11 04:56:19;;;;;;;4.00;3.60;;;23.00;30.40;;;;;;5086714;28;20056;-67
2022/01/11 04:58:45;;;;;;;4.20;3.80;;;23.00;30.40;;;;;;5087198;28;20048;-67
2022/01/11 05:01:11;;;;;;;4.20;3.40;;;23.00;30.40;;;;;;5088267;28;20400;-67
2022/01/11 05:03:36;;;;;;;3.53;3.22;;;23.00;30.40;;;;;;5088267;28;20032;-67
2022/01/11 05:06:04;;;;;;;4.68;3.97;;;23.00;30.30;;;;;;5087162;28;20543;-67
2022/01/11 05:08:30;;;;;;;4.00;3.65;;;23.10;30.30;;;;;;5076295;28;20051;-67
2022/01/11 05:10:56;;;;;;;3.80;3.42;;;23.10;30.20;;;;;;5073392;28;20040;-67
2022/01/11 05:13:22;;;;;;;3.95;3.55;;;23.10;30.20;;;;;;5073393;28;20089;-68
2022/01/11 05:15:48;;;;;;;4.20;3.80;;;23.10;30.20;;;;;;5074534;28;20044;-67
2022/01/11 05:18:15;;;;;;;3.85;3.50;;;23.20;30.10;;;;;;5073114;28;20040;-68
2022/01/11 05:20:41;;;;;;;4.38;3.55;;;23.20;30.10;;;;;;5073210;28;20040;-67
2022/01/11 05:23:07;;;;;;;3.92;3.47;;;23.20;30.00;;;;;;5074263;28;20040;-67
2022/01/11 05:25:33;;;;;;;4.40;4.00;;;23.30;30.70;;;;;;5074601;28;20032;-67
2022/01/11 05:27:59;;;;;;;3.90;3.42;;;23.40;29.90;;;;;;5074221;28;20442;-67
2022/01/11 05:30:26;;;;;;;4.32;3.83;;;23.50;29.80;;;;;;5073269;28;20082;-67
2022/01/11 05:32:52;;;;;;;3.92;3.55;;;23.60;29.70;;;;;;5073086;28;20044;-68
2022/01/11 05:35:19;;;;;;;4.22;3.65;;;23.70;29.70;;;;;;5072855;28;20044;-67
2022/01/11 05:37:45;;;;;;;5.35;4.25;;;23.70;29.60;;;;;;5073103;28;20048;-67
2022/01/11 05:40:12;;;;;;;4.90;3.80;;;23.70;29.50;;;;;;5073002;28;20109;-67
2022/01/11 05:42:38;;;;;;;4.22;3.83;;;23.80;29.50;;;;;;5072768;28;20045;-67
2022/01/11 05:45:07;;;;;;;4.18;3.75;;;23.80;29.40;;;;;;5072965;28;20040;-67
2022/01/11 05:47:33;;;;;;;5.18;3.58;;;23.80;29.50;;;;;;5072708;28;20178;-68
2022/01/11 05:50:07;;;;;;;5.25;3.60;;;23.70;29.40;;;;;;5073870;28;20116;-67
2022/01/11 05:52:35;;;;;;;5.13;4.22;;;23.70;30.00;;;;;;5072569;28;20527;-68
2022/01/11 05:55:02;;;;;;;4.25;3.85;;;23.70;29.40;;;;;;5072473;28;20105;-67
2022/01/11 05:57:28;;;;;;;4.90;4.10;;;23.70;29.40;;;;;;5072255;28;20056;-68
2022/01/11 05:59:54;;;;;;;4.57;4.10;;;23.70;29.50;;;;;;5072605;28;20391;-67
2022/01/11 06:02:20;;;;;;;4.25;3.90;;;23.70;29.40;;;;;;5073561;28;20484;-68
2022/01/11 06:04:45;;;;;;;4.65;3.70;;;23.60;29.40;;;;;;5072317;28;20158;-68
2022/01/11 06:07:11;;;;;;;5.00;3.92;;;23.70;29.50;;;;;;5073464;28;20086;-67
2022/01/11 06:09:37;;;;;;;4.43;3.95;;;23.70;29.40;;;;;;5072255;28;20040;-68
2022/01/11 06:12:03;;;;;;;4.25;3.80;;;23.70;29.30;;;;;;5072215;28;20075;-68
2022/01/11 06:14:28;;;;;;;4.65;4.15;;;23.70;29.30;;;;;;5073437;28;20040;-68
2022/01/11 06:16:54;;;;;;;5.15;4.28;;;23.80;29.30;;;;;;5072144;28;20472;-67
2022/01/11 06:19:20;;;;;;;4.65;4.15;;;23.80;29.20;;;;;;5071002;28;20045;-67
2022/01/11 06:21:45;;;;;;;4.32;3.78;;;23.90;29.10;;;;;;5071842;28;20045;-68
2022/01/11 06:24:12;;;;;;;4.32;3.88;;;23.90;29.00;;;;;;5071775;28;20086;-68
2022/01/11 06:26:38;;;;;;;5.80;4.35;;;24.00;29.00;;;;;;5071857;28;20484;-68
2022/01/11 06:29:03;;;;;;;5.15;4.00;;;24.00;28.90;;;;;;5071839;28;20047;-68
2022/01/11 06:31:30;;;;;;;5.72;4.32;;;24.10;28.90;;;;;;5071717;28;20127;-67
2022/01/11 06:33:56;;;;;;;4.70;4.20;;;24.10;28.90;;;;;;5072054;28;20090;-67
2022/01/11 06:36:22;;;;;;;5.45;4.65;;;24.10;28.80;;;;;;5071941;28;20567;-67
2022/01/11 06:38:48;;;;;;;6.57;4.03;;;24.10;28.80;;;;;;5071736;28;20116;-68
2022/01/11 06:41:13;;;;;;;4.57;3.85;;;24.10;29.10;;;;;;5071912;28;20036;-69
2022/01/11 06:43:40;;;;;;;4.63;4.05;;;23.90;30.50;;;;;;5067552;28;20123;-69
2022/01/11 06:46:06;;;;;;;5.25;4.45;;;23.60;30.30;;;;;;5063521;28;20094;-67
2022/01/11 06:48:33;;;;;;;6.47;4.75;;;23.20;30.90;;;;;;5064858;28;20044;-69
2022/01/11 06:50:59;;;;;;;5.47;4.25;;;23.00;31.50;;;;;;5066931;28;20051;-69
2022/01/11 06:53:25;;;;;;;4.47;4.07;;;22.70;32.40;;;;;;5063810;28;20044;-69
2022/01/11 06:55:53;;;;;;;5.07;4.57;;;22.50;33.10;;;;;;5063092;28;20137;-67
2022/01/11 06:58:19;;;;;;;4.55;3.90;;;22.40;33.70;;;;;;5066908;28;20388;-68
2022/01/11 07:00:45;;;;;;;5.00;4.15;;;22.20;33.90;;;;;;5065447;28;20036;-66
2022/01/11 07:03:11;;;;;;;4.80;4.35;;;22.20;34.30;;;;;;5067837;28;20036;-68
2022/01/11 07:05:37;;;;;;;4.95;4.25;;;22.10;35.20;;;;;;5066282;28;20036;-65
2022/01/11 07:08:03;;;;;;;7.95;4.30;;;22.10;34.60;;;;;;5064113;28;20032;-67
2022/01/11 07:10:29;;;;;;;6.95;3.85;;;22.00;34.50;;;;;;5046303;28;20044;-65
2022/01/11 07:12:57;;;;;;;6.97;4.05;;;22.10;34.40;;;;;;5051127;28;20043;-68
2022/01/11 07:15:28;;;;;;;9.85;4.00;;;22.20;34.50;;;;;;5055190;28;20045;-66
2022/01/11 07:17:54;;;;;;;7.53;5.85;;;22.30;34.20;;;;;;5058065;28;20653;-66
2022/01/11 07:20:20;;;;;;;7.25;6.30;;;22.40;32.90;;;;;;5050916;28;20127;-68
2022/01/11 07:22:45;;;;;;;7.07;5.90;;;22.40;31.80;;;;;;5054876;28;20392;-68
2022/01/11 07:25:11;;;;;;;7.40;6.43;;;22.30;30.80;;;;;;5068337;28;20388;-66
2022/01/11 07:27:39;;;;;;;6.20;5.55;;;22.30;30.20;;;;;;5072528;28;20682;-73
2022/01/11 07:30:06;;;;;;;8.25;5.78;;;22.20;30.00;;;;;;5060623;28;20036;-69
2022/01/11 07:32:35;;;;;;;8.70;6.60;;;22.20;30.00;;;;;;5059409;28;20298;-66
2022/01/11 07:35:04;;;;;;;8.88;5.13;;;22.00;29.50;;;;;;5053392;28;20079;-69
2022/01/11 07:37:29;;;;;;;8.77;5.68;;;22.00;29.80;;;;;;5055586;28;20721;-65
2022/01/11 07:39:55;;;;;;;9.20;5.93;;;22.20;29.80;;;;;;5057467;28;20098;-66
2022/01/11 07:42:21;;;;;;;7.70;5.97;;;22.30;29.60;;;;;;5056533;28;20460;-66
2022/01/11 07:44:50;;;;;;;7.13;5.60;;;22.30;29.10;;;;;;5048534;28;20040;-66
2022/01/11 07:47:17;;;;;;;6.37;5.70;;;22.20;28.80;;;;;;5069681;28;20049;-66
2022/01/11 07:49:43;;;;;;;7.90;4.82;;;22.10;29.20;;;;;;5053462;28;20037;-67
2022/01/11 07:52:09;;;;;;;6.53;4.57;;;22.10;29.60;;;;;;5053420;28;20459;-66
2022/01/11 07:54:34;;;;;;;6.40;4.38;;;22.30;29.90;;;;;;5069218;28;20539;-66
2022/01/11 07:57:00;;;;;;;4.95;4.55;;;22.60;30.00;;;;;;5051731;28;20049;-65
2022/01/11 07:59:28;;;;;;;6.65;4.57;;;22.80;30.00;;;;;;5047364;28;20052;-66
2022/01/11 08:01:55;;;;;;;6.18;4.43;;;23.00;29.90;;;;;;5054551;28;20051;-67
2022/01/11 08:04:20;;;;;;;5.50;4.90;;;23.10;29.90;;;;;;5053550;28;20123;-67
2022/01/11 08:06:46;;;;;;;5.38;4.82;;;23.10;29.20;;;;;;5051550;28;20119;-67
2022/01/11 08:09:14;;;;;;;11.70;5.28;;;23.00;29.10;;;;;;5056709;28;20055;-66
2022/01/11 08:11:40;;;;;;;4.97;4.47;;;22.90;29.20;;;;;;5050314;28;20056;-69
2022/01/11 08:14:06;;;;;;;4.93;4.43;;;22.80;29.20;;;;;;5049844;28;20062;-68
2022/01/11 08:16:31;;;;;;;4.95;3.88;;;22.70;29.30;;;;;;5046044;28;20077;-67
2022/01/11 08:18:57;;;;;;;5.25;3.55;;;22.70;29.90;;;;;;5051184;28;20666;-66
2022/01/11 08:21:23;;;;;;;6.60;3.78;;;22.80;29.80;;;;;;5048538;28;20488;-67
2022/01/11 08:23:48;;;;;;;4.25;3.72;;;23.00;29.60;;;;;;5049741;28;20037;-68
2022/01/11 08:26:14;;;;;;;4.97;4.25;;;23.10;29.40;;;;;;5048816;28;20076;-68
2022/01/11 08:28:41;;;;;;;5.30;3.60;;;23.20;29.40;;;;;;5067472;28;20070;-69
2022/01/11 08:31:06;;;;;;;3.65;3.00;;;23.20;29.50;;;;;;5049727;28;20041;-69
2022/01/11 08:33:32;;;;;;;3.13;2.83;;;23.30;29.70;;;;;;5052339;28;20052;-73
2022/01/11 08:35:58;;;;;;;3.63;3.33;;;23.20;29.70;;;;;;5048679;28;20050;-69
2022/01/11 08:38:23;;;;;;;4.18;3.22;;;23.20;29.90;;;;;;5048699;28;20900;-68
2022/01/11 08:40:49;;;;;;;7.05;2.95;;;23.30;30.00;;;;;;5067651;28;20546;-68
2022/01/11 08:43:15;;;;;;;4.80;2.83;;;23.30;30.00;;;;;;5054491;28;20045;-69
2022/01/11 08:45:41;;;;;;;3.13;2.90;;;23.30;30.10;;;;;;5073625;28;20052;-70
2022/01/11 08:48:07;;;;;;;3.80;2.42;;;23.30;30.20;;;;;;5057557;28;20576;-70
2022/01/11 08:50:32;;;;;;;5.45;2.50;;;23.20;30.30;;;;;;5057385;28;20046;-68
2022/01/11 08:52:58;;;;;;;5.10;2.70;;;23.20;30.60;;;;;;5046714;28;20750;-65
2022/01/11 08:55:24;;;;;;;4.97;4.35;;;23.20;30.40;;;;;;5048749;28;20103;-65
2022/01/11 08:57:50;;;;;;;3.58;3.28;;;23.20;29.90;;;;;;5065042;28;20129;-66
2022/01/11 09:00:18;;;;;;;4.10;3.20;;;23.10;29.40;;;;;;5051700;28;20052;-68
2022/01/11 09:02:46;;;;;;;4.88;3.92;;;23.10;29.10;;;;;;5053999;28;20043;-69
2022/01/11 09:05:12;;;;;;;4.40;3.90;;;23.00;28.90;;;;;;5056507;28;20396;-69
2022/01/11 09:07:38;;;;;;;6.20;4.47;;;23.00;28.70;;;;;;5055306;28;20048;-69
2022/01/11 09:10:05;;;;;;;4.53;3.55;;;22.90;28.60;;;;;;5053752;28;20033;-66
2022/01/11 09:12:30;;;;;;;5.03;4.60;;;22.90;28.70;;;;;;5052606;28;20083;-66
2022/01/11 09:14:56;;;;;;;4.25;3.85;;;22.90;28.50;;;;;;5053583;28;20079;-67
2022/01/11 09:17:22;;;;;;;8.82;4.60;;;22.80;28.40;;;;;;5055719;28;20029;-67
2022/01/11 09:19:47;;;;;;;5.60;5.10;;;22.80;28.50;;;;;;5055640;28;20033;-68
2022/01/11 09:22:13;;;;;;;6.10;5.22;;;22.80;28.20;;;;;;5057736;28;20049;-68
2022/01/11 09:24:39;;;;;;;7.05;6.10;;;22.70;27.80;;;;;;5058417;28;20116;-69
2022/01/11 09:27:06;;;;;;;7.10;6.50;;;22.60;27.50;;;;;;5056628;28;20041;-67
2022/01/11 09:29:37;;;;;;;6.60;5.68;;;22.40;27.20;;;;;;5074814;28;20120;-67
2022/01/11 09:32:04;;;;;;;6.20;5.00;;;22.30;27.20;;;;;;5071148;28;20094;-67
2022/01/11 09:34:29;;;;;;;5.95;4.32;;;22.30;27.60;;;;;;5056981;28;20041;-65
2022/01/11 09:36:55;;;;;;;4.32;4.00;;;22.50;28.50;;;;;;5056391;28;20044;-67
2022/01/11 09:39:21;;;;;;;4.80;4.15;;;22.70;28.00;;;;;;5074141;28;21122;-66
2022/01/11 09:41:47;;;;;;;3.88;3.50;;;23.00;28.20;;;;;;5074163;28;20083;-66
2022/01/11 09:44:12;;;;;;;5.50;3.28;;;23.10;28.10;;;;;;5055180;28;20456;-66
2022/01/11 09:46:39;;;;;;;3.90;2.88;;;23.40;28.20;;;;;;5056775;28;20960;-67
2022/01/11 09:49:05;;;;;;;7.35;2.95;;;23.60;28.30;;;;;;5057474;28;20094;-66
2022/01/11 09:51:32;;;;;;;7.15;3.15;;;23.90;28.50;;;;;;5046767;28;20048;-66
2022/01/11 09:53:58;;;;;;;3.85;2.70;;;24.10;28.70;;;;;;5050838;28;20053;-69
2022/01/11 09:56:24;;;;;;;8.50;4.65;;;24.20;28.70;;;;;;5070007;28;20495;-68
2022/01/11 09:58:50;;;;;;;4.85;4.13;;;24.40;28.30;;;;;;5054334;28;20127;-67
2022/01/11 10:01:16;;;;;;;5.82;3.28;;;24.50;28.10;;;;;;5048336;28;20132;-70
2022/01/11 10:04:18;;;;;;;6.65;4.13;;;24.70;28.20;;;;;;5053663;28;20040;-70
2022/01/11 10:06:52;;;;;;;5.13;3.90;;;24.70;27.30;;;;;;5058569;28;20037;-69
2022/01/11 10:09:21;;;;;;;4.85;3.85;;;24.60;27.40;;;;;;5057787;28;20062;-65
2022/01/11 10:11:50;;;;;;;4.63;3.40;;;24.50;27.50;;;;;;5053876;28;20052;-68
2022/01/11 10:17:16;;;;;;;5.82;3.38;;;24.40;28.00;;;;;;5105480;27;1204146;-70
2022/01/11 10:19:45;;;;;;;6.32;3.28;;;24.30;28.40;;;;;;5112614;27;20722;-66
2022/01/11 10:22:17;;;;;;;4.97;2.78;;;24.30;28.70;;;;;;5119152;27;20038;-68
2022/01/11 10:24:46;;;;;;;4.63;2.83;;;24.50;28.80;;;;;;5137408;27;20062;-71
2022/01/11 10:29:53;;;;;;;4.82;3.28;;;24.70;28.80;;;;;;5111522;27;20455;-73
2022/01/11 10:37:47;;;;;;;3.70;2.70;;;24.70;28.90;;;;;;5102832;27;21399;-67
2022/01/11 10:40:34;;;;;;;5.07;3.38;;;25.00;29.40;;;;;;5087691;28;20046;-69
2022/01/11 10:43:06;;;;;;;7.55;3.35;;;25.10;29.30;;;;;;5113360;27;20032;-68
2022/01/11 10:45:34;;;;;;;4.72;2.63;;;25.20;29.40;;;;;;5101488;28;20052;-66
2022/01/11 10:48:03;;;;;;;4.60;2.53;;;25.20;29.20;;;;;;5094246;28;20169;-70
2022/01/11 10:50:34;;;;;;;7.27;2.83;;;25.10;29.40;;;;;;5101088;28;20474;-66
2022/01/11 10:53:03;;;;;;;3.90;2.40;;;25.00;29.80;;;;;;5111462;27;20070;-67
2022/01/11 10:55:32;;;;;;;4.50;2.35;;;24.90;30.10;;;;;;5110976;27;20048;-70
2022/01/11 10:58:00;;;;;;;3.53;2.40;;;24.90;30.40;;;;;;5101023;28;20043;-70
2022/01/11 11:00:47;;;;;;;4.93;2.42;;;24.80;30.30;;;;;;5094132;28;20491;-71
2022/01/11 11:05:57;;;;;;;8.80;4.80;;;24.70;30.40;;;;;;5073460;27;20434;-67
2022/01/11 11:13:44;;;;;;;8.40;3.58;;;24.30;29.70;;;;;;5060414;27;20455;-66
2022/01/11 11:18:54;;;;;;;5.50;2.70;;;23.50;30.00;;;;;;5094595;27;20823;-69
2022/01/11 11:24:03;;;;;;;5.40;3.00;;;23.00;31.40;;;;;;5069168;28;20459;-67
2022/01/11 11:26:37;;;;;;;4.53;2.60;;;22.80;31.70;;;;;;5054087;28;20392;-69
2022/01/11 11:29:04;;;;;;;5.57;2.75;;;22.70;32.80;;;;;;5072768;28;20041;-69
2022/01/11 11:31:30;;;;;;;4.07;3.03;;;22.50;32.50;;;;;;5059439;28;20052;-67
2022/01/11 11:33:56;;;;;;;4.00;3.38;;;22.40;32.80;;;;;;5056611;28;20068;-70
2022/01/11 11:36:22;;;;;;;4.45;3.17;;;22.20;33.20;;;;;;5058665;28;20045;-68
2022/01/11 11:39:13;;;;;;;5.25;3.13;;;22.10;33.50;;;;;;5060102;28;20129;-71
2022/01/11 11:41:44;;;;;;;8.38;4.57;;;21.90;33.90;;;;;;5058785;28;20575;-67
2022/01/11 11:57:58;;;;;;;5.25;4.75;;;20.70;32.00;;;;;;5087877;27;20433;-72
2022/01/11 12:00:31;;;;;;;9.25;4.68;;;20.50;32.30;;;;;;5077216;28;20041;-69
2022/01/11 12:03:01;;;;;;;8.10;5.65;;;20.40;32.50;;;;;;5075576;28;20526;-69
2022/01/11 12:05:39;;;;;;;6.90;4.72;;;20.20;32.30;;;;;;5070053;28;20104;-70
2022/01/11 12:11:10;;;;;;;8.80;4.78;;;20.00;33.00;;;;;;5097291;27;1171903;-66
2022/01/11 12:13:53;;;;;;;7.00;4.72;;;19.90;33.60;;;;;;5119341;27;20172;-69
2022/01/11 12:24:40;;;;;;;5.40;4.28;;;19.90;34.00;;;;;;5110886;27;1173674;-64
2022/01/11 12:27:10;;;;;;;6.65;3.70;;;19.90;35.50;;;;;;5117787;27;20050;-65
2022/01/11 12:29:37;;;;;;;13.63;4.95;;;19.90;35.70;;;;;;5125032;27;20080;-67
2022/01/11 12:32:07;;;;;;;10.00;4.53;;;19.90;35.80;;;;;;5121258;27;20042;-71
2022/01/11 12:37:41;;;;;;;7.43;4.38;;;19.80;36.30;;;;;;5117927;27;1164491;-69
2022/01/11 12:45:58;;;;;;;7.97;4.25;;;19.70;36.50;;;;;;5087729;27;20464;-65
2022/01/11 12:51:49;;;;;;;23.52;7.07;;;19.70;37.30;;;;;;5061528;28;20411;-69
2022/01/11 12:57:14;;;;;;;32.15;6.97;;;19.70;37.70;;;;;;5089598;27;20409;-70
2022/01/11 12:59:46;;;;;;;48.50;8.93;;;19.70;37.80;;;;;;5074313;28;20579;-70
2022/01/11 13:02:18;;;;;;;58.00;11.93;;;19.70;37.90;;;;;;5084693;28;20047;-72
2022/01/11 13:04:54;;;;;;;40.10;9.60;;;19.70;38.40;;;;;;5076605;28;20058;-65
2022/01/11 13:12:49;;;;;;;44.80;9.30;;;19.70;38.50;;;;;;5097333;27;20956;-68
2022/01/11 13:15:20;;;;;;;39.53;9.25;;;19.60;38.50;;;;;;5107102;27;20055;-74
2022/01/11 13:20:28;;;;;;;21.55;6.28;;;19.50;38.50;;;;;;5095067;27;20429;-74
2022/01/11 13:31:18;;;;;;;23.38;4.88;;;19.50;39.30;;;;;;5083049;27;20399;-68
2022/01/11 13:33:48;;;;;;;19.75;5.85;;;19.40;39.20;;;;;;5073260;28;20054;-71
2022/01/11 13:36:27;;;;;;;19.50;4.60;;;19.40;39.60;;;;;;5076207;28;20056;-70
2022/01/11 13:38:56;;;;;;;12.50;4.32;;;19.30;40.00;;;;;;5075511;28;20142;-71
2022/01/11 13:41:33;;;;;;;11.43;4.45;;;19.30;40.10;;;;;;5074953;28;20133;-70
2022/01/11 13:44:01;;;;;;;13.63;3.75;;;19.40;40.70;;;;;;5077010;28;20067;-70
2022/01/11 13:46:28;;;;;;;13.48;4.07;;;19.40;40.70;;;;;;5078045;28;20048;-74
2022/01/11 13:48:56;;;;;;;13.43;3.40;;;19.40;40.80;;;;;;5077619;28;20193;-71
2022/01/11 13:51:25;;;;;;;61.47;10.27;;;19.50;41.00;;;;;;5070061;28;20032;-69
2022/01/11 13:53:59;;;;;;;36.75;9.65;;;19.50;41.40;;;;;;5073360;28;20690;-68
2022/01/11 13:56:31;;;;;;;31.17;7.78;;;19.50;41.50;;;;;;5064779;28;20044;-70
2022/01/11 13:58:57;;;;;;;74.28;12.88;;;19.50;41.50;;;;;;5066083;28;20119;-72
2022/01/11 14:01:25;;;;;;;39.53;8.85;;;19.50;41.50;;;;;;5071905;28;20139;-74
2022/01/11 14:04:03;;;;;;;32.95;7.85;;;19.50;41.60;;;;;;5074046;28;20051;-73
2022/01/11 14:06:40;;;;;;;28.73;7.25;;;19.50;41.60;;;;;;5071230;28;20050;-75
2022/01/11 14:09:10;;;;;;;25.27;7.57;;;19.40;41.50;;;;;;5073181;28;20151;-72
2022/01/11 14:11:39;;;;;;;24.90;6.70;;;19.40;40.10;;;;;;5076330;28;20325;-73
2022/01/11 14:14:06;;;;;;;20.55;6.47;;;19.30;40.20;;;;;;5073582;28;20052;-68
2022/01/11 14:16:34;;;;;;;21.38;6.05;;;19.30;40.20;;;;;;5075193;28;20040;-69